This is the latest recevied weather packets stored in our database for station/object KB8DOA. If no packets are shown the sender has not sent any weather packets the latest 10 day(s).
| Time | Temp. | Humidity | Pressure | Rain* | Wind** | Luminosity | Snow |
|---|---|---|---|---|---|---|---|
| 1778163004 | 28.89° C | 67% | 1014 hPa | 0 mm | - | 552 W/m² | - |
| 1778161504 | 29.44° C | 65% | 1014.2 hPa | 0 mm | - | 431 W/m² | - |
| 1778161204 | 29.44° C | 65% | 1014.9 hPa | 0 mm | - | 407 W/m² | - |
| 1778160604 | 28.89° C | 66% | 1014.2 hPa | 0 mm | - | 361 W/m² | - |
| 1778160003 | 28.33° C | 69% | 1013.9 hPa | 0 mm | - | 315 W/m² | - |
| 1778157304 | 28.33° C | 72% | 1012.4 hPa | 0 mm | - | 129 W/m² | - |
| 1778154004 | 25° C | 93% | 1015.5 hPa | 0 mm | - | 135 W/m² | - |
| 1778149204 | 22.22° C | 92% | 1014.1 hPa | 0 mm | - | 0 W/m² | - |
| 1778146803 | 22.78° C | 91% | 1013.9 hPa | 0 mm | - | 0 W/m² | - |
| 1778132703 | 25.56° C | 73% | 1013 hPa | 0 mm | - | 0 W/m² | - |
| 1778132104 | 25.56° C | 72% | 1012.9 hPa | 0 mm | - | 0 W/m² | - |
| 1778127904 | 25.56° C | 70% | 1013.5 hPa | 0 mm | - | 0 W/m² | - |
| 1778125204 | 26.11° C | 70% | 1013.6 hPa | 0 mm | - | 0 W/m² | - |
| 1778118904 | 26.11° C | 70% | 1013.5 hPa | 0 mm | - | 0 W/m² | - |
| 1778112304 | 27.22° C | 63% | 1015.1 hPa | 0 mm | - | 0 W/m² | - |
| 1778108104 | 27.22° C | 77% | 1013.8 hPa | 0 mm | - | 0 W/m² | - |
| 1778106004 | 27.22° C | 77% | 1013.3 hPa | 0 mm | - | 0 W/m² | - |
| 1778105704 | 27.22° C | 77% | 1013.4 hPa | 0 mm | - | 0 W/m² | - |
| 1778102704 | 27.78° C | 74% | 1012.4 hPa | 0 mm | - | 0 W/m² | - |
| 1778095805 | 27.78° C | 73% | 1012.8 hPa | 0 mm | - | 0 W/m² | - |
| 1778094304 | 27.78° C | 74% | 1012.6 hPa | 0 mm | - | 0 W/m² | - |
| 1778091904 | 27.78° C | 76% | 1013.2 hPa | 0 mm | - | 0 W/m² | - |
| 1778091604 | 27.78° C | 75% | 1012.9 hPa | 0 mm | - | 0 W/m² | - |
| 1778091305 | 27.78° C | 74% | 1013.2 hPa | 0 mm | - | 0 W/m² | - |
| 1778091004 | 27.78° C | 75% | 1012.7 hPa | 0 mm | - | 0 W/m² | - |
* Rain latest hour (hover to see other rain measurements)
** Current wind speed in m/s (hover to see current wind gust speed)